Time;durP1;ratioP1;P1;durP2;ratioP2;P2;SDS_P1;SDS_P2;PMS_P1;PMS_P2;Temp;Humidity;BMP_temperature;BMP_pressure;BME280_temperature;BME280_humidity;BME280_pressure;Samples;Min_cycle;Max_cycle;Signal;HPM_P1;HPM_P2
2023/06/30 00:01:57;;;;;;;12.02;10.82;;;435.30;2355.20;;;;;;5072140;28;20115;-79
2023/06/30 00:04:26;;;;;;;12.60;11.30;;;435.20;2355.20;;;;;;5073752;28;20465;-79
2023/06/30 00:06:56;;;;;;;11.15;10.15;;;435.20;2355.20;;;;;;5072577;28;20074;-79
2023/06/30 00:09:23;;;;;;;11.73;10.57;;;435.30;2355.20;;;;;;5072051;28;20056;-78
2023/06/30 00:11:53;;;;;;;12.20;10.93;;;435.40;2355.20;;;;;;5072221;28;20036;-78
2023/06/30 00:14:20;;;;;;;11.82;10.63;;;435.40;2355.20;;;;;;5072091;28;20024;-77
2023/06/30 00:16:47;;;;;;;11.80;10.27;;;435.30;2355.20;;;;;;5073517;28;20056;-78
2023/06/30 00:19:13;;;;;;;12.27;11.02;;;435.20;2355.20;;;;;;5072160;28;20029;-79
2023/06/30 00:21:41;;;;;;;12.15;10.23;;;435.20;2355.20;;;;;;5072018;28;20028;-78
2023/06/30 00:24:12;;;;;;;12.35;10.98;;;435.20;2355.20;;;;;;5073726;28;20085;-78
2023/06/30 00:26:39;;;;;;;12.88;10.93;;;410.50;2355.20;;;;;;5073322;28;20017;-77
2023/06/30 00:29:05;;;;;;;12.52;11.32;;;410.40;2355.20;;;;;;5071840;28;20029;-78
2023/06/30 00:31:31;;;;;;;16.17;11.30;;;410.50;2355.20;;;;;;5093270;28;20043;-78
2023/06/30 00:33:57;;;;;;;12.48;11.27;;;435.20;2355.20;;;;;;5092505;28;20028;-77
2023/06/30 00:36:23;;;;;;;12.90;11.70;;;410.50;2355.20;;;;;;5105524;28;20084;-78
2023/06/30 00:38:54;;;;;;;13.05;10.45;;;410.30;2355.20;;;;;;5107879;28;20028;-78
2023/06/30 00:41:23;;;;;;;12.00;10.90;;;410.30;2355.20;;;;;;5093399;28;20073;-78
2023/06/30 00:43:49;;;;;;;13.85;11.73;;;410.20;2355.20;;;;;;5093436;28;20103;-77
2023/06/30 00:46:17;;;;;;;11.80;10.57;;;410.40;2355.20;;;;;;5092164;28;20490;-77
2023/06/30 00:48:43;;;;;;;12.13;10.95;;;410.50;2355.20;;;;;;5092166;28;20060;-78
2023/06/30 00:51:11;;;;;;;12.65;11.40;;;410.20;2355.20;;;;;;5093045;28;20036;-80
2023/06/30 00:53:36;;;;;;;11.27;10.20;;;410.20;2355.20;;;;;;5091950;28;20463;-80
2023/06/30 00:56:03;;;;;;;13.55;10.93;;;410.30;2355.20;;;;;;5092702;28;20024;-80
2023/06/30 00:58:29;;;;;;;13.23;11.07;;;410.20;2355.20;;;;;;5092163;28;20377;-79
2023/06/30 01:01:02;;;;;;;10.70;9.48;;;410.30;2355.20;;;;;;5091932;28;20024;-80
2023/06/30 01:03:38;;;;;;;12.00;10.32;;;435.30;2355.20;;;;;;5092977;28;20024;-81
2023/06/30 01:06:20;;;;;;;12.90;11.05;;;410.50;2355.20;;;;;;5095092;28;20039;-80
2023/06/30 01:09:02;;;;;;;12.77;11.27;;;410.50;2355.20;;;;;;5097118;28;20044;-80
2023/06/30 01:11:28;;;;;;;14.05;11.55;;;410.50;2355.20;;;;;;5096846;28;20028;-80
2023/06/30 01:13:55;;;;;;;13.27;11.77;;;410.50;2355.20;;;;;;5095619;28;20095;-79
2023/06/30 01:16:23;;;;;;;11.73;10.52;;;435.20;2355.20;;;;;;5095631;28;20468;-80
2023/06/30 01:18:52;;;;;;;12.00;10.90;;;435.20;2355.20;;;;;;5095208;28;20025;-79
2023/06/30 01:21:23;;;;;;;13.88;12.05;;;435.30;2355.20;;;;;;5095532;28;20024;-80
2023/06/30 01:23:58;;;;;;;12.82;11.50;;;435.30;2355.20;;;;;;5089375;28;20033;-80
2023/06/30 01:26:24;;;;;;;15.50;12.02;;;435.20;2355.20;;;;;;5075231;28;20031;-80
2023/06/30 01:28:53;;;;;;;16.77;11.95;;;435.20;2355.20;;;;;;5075090;28;20107;-79
2023/06/30 01:31:20;;;;;;;13.50;10.93;;;410.50;2355.20;;;;;;5074633;28;20035;-79
2023/06/30 01:33:46;;;;;;;13.52;11.95;;;435.20;2355.20;;;;;;5075127;28;20025;-79
2023/06/30 01:36:12;;;;;;;14.13;12.02;;;435.30;2355.20;;;;;;5075140;28;20461;-79
2023/06/30 01:38:38;;;;;;;14.32;12.77;;;435.20;2355.20;;;;;;5075375;28;20032;-80
2023/06/30 01:41:07;;;;;;;11.85;10.65;;;410.00;2355.20;;;;;;5074749;28;20124;-80
2023/06/30 01:43:35;;;;;;;13.55;12.15;;;410.00;2355.20;;;;;;5074782;28;20025;-79
2023/06/30 01:46:01;;;;;;;12.88;11.52;;;409.70;2355.20;;;;;;5086433;28;20041;-80
2023/06/30 01:48:28;;;;;;;16.10;12.98;;;409.70;2355.20;;;;;;5075579;28;20430;-80
2023/06/30 01:50:55;;;;;;;13.57;12.18;;;384.90;2329.60;;;;;;5074641;28;20426;-80
2023/06/30 01:53:21;;;;;;;13.18;11.68;;;409.60;2355.20;;;;;;5074315;28;20389;-80
2023/06/30 01:55:48;;;;;;;14.07;12.55;;;409.70;2355.20;;;;;;5076073;28;20028;-81
2023/06/30 01:58:14;;;;;;;12.15;10.88;;;409.70;2355.20;;;;;;5084959;28;20444;-80
2023/06/30 02:00:40;;;;;;;12.60;11.30;;;409.90;2355.20;;;;;;5095756;28;20020;-80
2023/06/30 02:03:05;;;;;;;12.60;10.95;;;409.90;2355.20;;;;;;5094741;28;20092;-80
2023/06/30 02:05:31;;;;;;;14.02;11.45;;;409.80;2355.20;;;;;;5096078;28;20028;-80
2023/06/30 02:07:57;;;;;;;12.15;11.05;;;409.90;2355.20;;;;;;5093807;28;20032;-81
2023/06/30 02:10:23;;;;;;;13.50;12.20;;;409.60;2355.20;;;;;;5094537;28;20047;-80
2023/06/30 02:12:48;;;;;;;12.40;10.95;;;384.70;2329.60;;;;;;5094555;28;20036;-81
2023/06/30 02:15:14;;;;;;;12.85;11.55;;;384.70;2329.60;;;;;;5094233;28;20032;-81
2023/06/30 02:17:40;;;;;;;13.70;10.63;;;384.80;2329.60;;;;;;5095661;28;20020;-78
2023/06/30 02:20:06;;;;;;;11.90;10.80;;;384.90;2329.60;;;;;;5094069;28;20483;-77
2023/06/30 02:22:33;;;;;;;12.27;11.10;;;384.90;2329.60;;;;;;5094175;28;20167;-78
2023/06/30 02:25:00;;;;;;;13.27;11.98;;;384.80;2329.60;;;;;;5094186;28;20024;-78
2023/06/30 02:27:28;;;;;;;12.55;11.25;;;384.80;2329.60;;;;;;5095216;28;20026;-78
2023/06/30 02:29:54;;;;;;;14.77;11.25;;;384.60;2329.60;;;;;;5094351;28;20483;-78
2023/06/30 02:32:21;;;;;;;17.33;11.98;;;384.60;2329.60;;;;;;5095405;28;20075;-78
2023/06/30 02:34:47;;;;;;;13.93;11.38;;;384.70;2329.60;;;;;;5094682;28;20039;-78
2023/06/30 02:37:13;;;;;;;11.85;10.75;;;384.70;2329.60;;;;;;5095229;28;20427;-79
2023/06/30 02:39:39;;;;;;;12.43;11.32;;;384.40;2329.60;;;;;;5093945;28;20402;-79
2023/06/30 02:42:05;;;;;;;14.38;11.15;;;384.70;2329.60;;;;;;5093713;28;20035;-79
2023/06/30 02:44:30;;;;;;;13.63;10.35;;;384.80;2329.60;;;;;;5094036;28;20460;-79
2023/06/30 02:46:56;;;;;;;12.27;11.20;;;384.80;2329.60;;;;;;5095428;28;20078;-78
2023/06/30 02:49:23;;;;;;;12.25;11.15;;;384.70;2329.60;;;;;;5093702;28;20028;-79
2023/06/30 02:51:49;;;;;;;12.73;11.43;;;384.80;2329.60;;;;;;5093593;28;20032;-79
2023/06/30 02:54:15;;;;;;;12.75;11.45;;;384.40;2329.60;;;;;;5093057;28;20028;-79
2023/06/30 02:56:41;;;;;;;12.43;11.10;;;384.30;2329.60;;;;;;5093029;28;20028;-79
2023/06/30 02:59:06;;;;;;;12.88;11.52;;;384.40;2329.60;;;;;;5091468;28;20028;-79
2023/06/30 03:01:32;;;;;;;13.07;11.18;;;384.60;2329.60;;;;;;5074393;28;20033;-78
2023/06/30 03:03:58;;;;;;;12.60;11.02;;;384.40;2329.60;;;;;;5073009;28;20020;-78
2023/06/30 03:06:24;;;;;;;13.68;11.48;;;384.40;2329.60;;;;;;5073221;28;20033;-78
2023/06/30 03:08:49;;;;;;;14.50;11.25;;;384.40;2329.60;;;;;;5072894;28;20045;-79
2023/06/30 03:11:15;;;;;;;12.02;10.82;;;384.40;2329.60;;;;;;5072875;28;20488;-79
2023/06/30 03:13:43;;;;;;;19.30;12.13;;;384.20;2329.60;;;;;;5072756;28;20072;-78
2023/06/30 03:16:09;;;;;;;14.07;12.73;;;384.10;2329.60;;;;;;5072665;28;20060;-79
2023/06/30 03:18:35;;;;;;;12.95;11.77;;;384.20;2329.60;;;;;;5072981;28;20078;-79
2023/06/30 03:21:01;;;;;;;12.27;11.02;;;384.40;2329.60;;;;;;5072995;28;20025;-79
2023/06/30 03:23:27;;;;;;;13.57;12.18;;;384.40;2329.60;;;;;;5073917;28;20024;-78
2023/06/30 03:25:53;;;;;;;13.23;11.82;;;384.40;2329.60;;;;;;5073913;28;20112;-79
2023/06/30 03:28:19;;;;;;;14.77;13.25;;;384.40;2329.60;;;;;;5073828;28;20059;-79
2023/06/30 03:30:44;;;;;;;14.18;12.65;;;384.60;2329.60;;;;;;5072317;28;20044;-80
2023/06/30 03:33:10;;;;;;;13.50;12.02;;;384.60;2329.60;;;;;;5073946;28;20097;-79
2023/06/30 03:35:36;;;;;;;16.80;15.10;;;384.70;2329.60;;;;;;5074098;28;20028;-78
2023/06/30 03:38:02;;;;;;;15.48;13.10;;;384.70;2329.60;;;;;;5072324;28;20219;-79
2023/06/30 03:40:28;;;;;;;14.65;13.10;;;384.70;2329.60;;;;;;5072596;28;20032;-79
2023/06/30 03:42:53;;;;;;;13.43;11.60;;;384.70;2329.60;;;;;;5072649;28;20028;-79
2023/06/30 03:45:19;;;;;;;13.93;12.43;;;384.70;2329.60;;;;;;5072399;28;20077;-78
2023/06/30 03:47:46;;;;;;;12.95;11.48;;;384.40;2329.60;;;;;;5072729;28;20016;-79
2023/06/30 03:50:11;;;;;;;15.23;13.63;;;384.60;2329.60;;;;;;5072586;28;20024;-79
2023/06/30 03:52:37;;;;;;;15.20;12.35;;;384.70;2329.60;;;;;;5072236;28;20036;-79
2023/06/30 03:55:04;;;;;;;16.52;13.25;;;384.60;2329.60;;;;;;5072498;28;20035;-79
2023/06/30 03:57:30;;;;;;;15.00;12.90;;;384.70;2329.60;;;;;;5080290;28;20040;-80
2023/06/30 03:59:55;;;;;;;13.80;11.52;;;384.70;2329.60;;;;;;5097443;28;20013;-79
2023/06/30 04:02:21;;;;;;;17.33;13.73;;;384.70;2329.60;;;;;;5073766;28;20032;-78
2023/06/30 04:04:47;;;;;;;15.32;12.75;;;384.70;2329.60;;;;;;5072471;28;20040;-78
2023/06/30 04:07:13;;;;;;;14.50;13.00;;;384.60;2329.60;;;;;;5072184;28;20025;-79
2023/06/30 04:09:38;;;;;;;13.60;12.27;;;384.60;2329.60;;;;;;5071885;28;20404;-78
2023/06/30 04:12:05;;;;;;;13.70;12.30;;;384.60;2329.60;;;;;;5072044;28;20032;-79
2023/06/30 04:14:31;;;;;;;13.27;11.90;;;384.90;2329.60;;;;;;5073837;28;20039;-79
2023/06/30 04:16:56;;;;;;;18.20;12.70;;;384.90;2329.60;;;;;;5072330;28;20020;-79
2023/06/30 04:19:22;;;;;;;12.77;11.02;;;384.90;2329.60;;;;;;5071926;28;20024;-79
2023/06/30 04:21:49;;;;;;;14.43;12.40;;;409.70;2355.20;;;;;;5072265;28;20032;-78
2023/06/30 04:24:15;;;;;;;16.55;13.65;;;409.70;2355.20;;;;;;5072244;28;20078;-78
2023/06/30 04:26:41;;;;;;;15.02;13.40;;;409.60;2355.20;;;;;;5073406;28;20028;-78
2023/06/30 04:29:07;;;;;;;13.25;11.85;;;384.90;2329.60;;;;;;5072254;28;20119;-79
2023/06/30 04:31:32;;;;;;;14.98;13.30;;;409.70;2355.20;;;;;;5072120;28;20032;-78
2023/06/30 04:33:58;;;;;;;19.70;13.27;;;409.70;2355.20;;;;;;5073353;28;20075;-79
2023/06/30 04:36:24;;;;;;;15.38;12.98;;;384.90;2329.60;;;;;;5072311;28;20495;-80
2023/06/30 04:38:50;;;;;;;15.27;13.10;;;384.90;2329.60;;;;;;5072096;28;20392;-80
2023/06/30 04:41:16;;;;;;;16.42;12.32;;;384.90;2329.60;;;;;;5075570;28;20392;-79
2023/06/30 04:43:43;;;;;;;14.60;12.40;;;409.60;2355.20;;;;;;5076172;28;20024;-79
2023/06/30 04:46:09;;;;;;;18.17;12.55;;;409.80;2355.20;;;;;;5075975;28;20119;-79
2023/06/30 04:48:35;;;;;;;15.15;11.75;;;409.90;2355.20;;;;;;5075889;28;20097;-80
2023/06/30 04:51:01;;;;;;;14.65;12.60;;;410.00;2355.20;;;;;;5075802;28;20532;-79
2023/06/30 04:53:27;;;;;;;18.67;13.38;;;409.90;2355.20;;;;;;5077377;28;20037;-80
2023/06/30 04:55:53;;;;;;;21.55;15.93;;;409.90;2355.20;;;;;;5075452;28;20021;-79
2023/06/30 04:58:18;;;;;;;23.08;16.90;;;410.00;2355.20;;;;;;5076131;28;20460;-79
2023/06/30 05:00:45;;;;;;;15.93;13.30;;;410.00;2355.20;;;;;;5075937;28;20119;-79
2023/06/30 05:03:11;;;;;;;14.15;12.65;;;410.00;2355.20;;;;;;5075437;28;20028;-79
2023/06/30 05:05:37;;;;;;;15.18;12.32;;;410.10;2355.20;;;;;;5077015;28;20021;-78
2023/06/30 05:08:03;;;;;;;14.70;11.45;;;410.20;2355.20;;;;;;5076575;28;20127;-78
2023/06/30 05:10:28;;;;;;;13.10;10.93;;;410.10;2355.20;;;;;;5076515;28;20471;-76
2023/06/30 05:12:54;;;;;;;14.73;11.98;;;410.20;2355.20;;;;;;5075433;28;20036;-77
2023/06/30 05:15:20;;;;;;;13.88;12.48;;;410.20;2355.20;;;;;;5075156;28;20029;-78
2023/06/30 05:17:46;;;;;;;16.13;14.52;;;410.20;2355.20;;;;;;5075343;28;20150;-78
2023/06/30 05:20:12;;;;;;;16.35;13.57;;;410.10;2355.20;;;;;;5075420;28;20066;-80
2023/06/30 05:22:38;;;;;;;17.00;15.20;;;410.20;2355.20;;;;;;5075326;28;20044;-80
2023/06/30 05:25:04;;;;;;;15.32;13.82;;;410.30;2355.20;;;;;;5075373;28;20024;-79
2023/06/30 05:27:30;;;;;;;17.33;13.38;;;410.40;2355.20;;;;;;5074948;28;20029;-80
2023/06/30 05:29:56;;;;;;;17.98;16.08;;;410.50;2355.20;;;;;;5074928;28;20024;-78
2023/06/30 05:32:22;;;;;;;17.08;13.48;;;410.50;2355.20;;;;;;5089974;28;20507;-80
2023/06/30 05:34:50;;;;;;;15.20;12.38;;;435.20;2355.20;;;;;;5094780;28;20031;-78
2023/06/30 05:37:15;;;;;;;13.45;11.38;;;435.20;2355.20;;;;;;5092933;28;20035;-78
2023/06/30 05:39:41;;;;;;;12.80;11.23;;;435.30;2355.20;;;;;;5093528;28;20384;-78
2023/06/30 05:42:07;;;;;;;11.63;10.45;;;435.30;2355.20;;;;;;5094495;28;20096;-79
2023/06/30 05:44:33;;;;;;;12.57;10.75;;;435.40;2355.20;;;;;;5093830;28;20032;-78
2023/06/30 05:46:59;;;;;;;12.20;10.88;;;435.50;2355.20;;;;;;5095049;28;20024;-78
2023/06/30 05:49:25;;;;;;;13.98;11.85;;;435.60;2355.20;;;;;;5093356;28;20115;-79
2023/06/30 05:51:51;;;;;;;11.38;9.98;;;435.60;2355.20;;;;;;5094751;28;20041;-79
2023/06/30 05:54:17;;;;;;;12.77;9.70;;;435.80;2355.20;;;;;;5094808;28;20051;-79
2023/06/30 05:56:43;;;;;;;12.50;11.20;;;436.00;2355.20;;;;;;5095781;28;20024;-79
2023/06/30 05:59:10;;;;;;;11.38;10.18;;;436.10;2355.20;;;;;;5094191;28;20035;-81
2023/06/30 06:01:38;;;;;;;16.42;10.18;;;436.10;2355.20;;;;;;5094735;28;20039;-80
2023/06/30 06:04:08;;;;;;;11.30;9.88;;;460.80;2380.80;;;;;;5094295;28;20032;-79
2023/06/30 06:06:34;;;;;;;12.38;11.07;;;460.80;2380.80;;;;;;5096086;28;20050;-79
2023/06/30 06:08:59;;;;;;;11.70;9.77;;;461.00;2380.80;;;;;;5095812;28;20044;-79
2023/06/30 06:11:25;;;;;;;11.55;10.15;;;461.00;2380.80;;;;;;5095097;28;20039;-79
2023/06/30 06:13:51;;;;;;;12.02;10.32;;;461.00;2380.80;;;;;;5094223;28;20111;-79
2023/06/30 06:16:17;;;;;;;12.85;10.05;;;461.00;2380.80;;;;;;5094406;28;20030;-79
2023/06/30 06:18:42;;;;;;;12.02;10.68;;;461.10;2380.80;;;;;;5094137;28;20028;-79
2023/06/30 06:21:08;;;;;;;12.73;10.00;;;461.30;2380.80;;;;;;5094276;28;20035;-80
2023/06/30 06:23:34;;;;;;;11.93;9.35;;;461.40;2380.80;;;;;;5094304;28;20028;-79
2023/06/30 06:26:02;;;;;;;9.93;8.90;;;461.70;2380.80;;;;;;5094009;28;20059;-79
2023/06/30 06:28:28;;;;;;;11.85;9.23;;;461.70;2380.80;;;;;;5094172;28;20028;-80
2023/06/30 06:30:54;;;;;;;10.73;9.63;;;486.40;2380.80;;;;;;5094132;28;20032;-82
2023/06/30 06:33:20;;;;;;;10.50;9.50;;;486.50;2380.80;;;;;;5093819;28;20036;-82
2023/06/30 06:35:48;;;;;;;9.27;7.93;;;486.50;2380.80;;;;;;5095441;28;20031;-81
2023/06/30 06:38:17;;;;;;;11.40;9.20;;;486.50;2380.80;;;;;;5094106;28;20031;-81
2023/06/30 06:40:43;;;;;;;10.70;9.60;;;486.70;2380.80;;;;;;5095125;28;20039;-82
2023/06/30 06:43:09;;;;;;;10.95;9.55;;;486.70;2380.80;;;;;;5093911;28;20108;-78
2023/06/30 06:45:35;;;;;;;9.43;8.55;;;486.90;2380.80;;;;;;5095416;28;20036;-81
2023/06/30 06:48:24;;;;;;;13.07;9.02;;;487.00;2380.80;;;;;;5094777;28;20422;-81
2023/06/30 06:50:57;;;;;;;9.55;8.65;;;487.30;2380.80;;;;;;5093915;28;20367;-79
2023/06/30 06:53:34;;;;;;;13.63;9.25;;;512.00;2380.80;;;;;;5093320;28;20123;-79
2023/06/30 06:56:01;;;;;;;11.00;8.98;;;512.20;2380.80;;;;;;5089280;28;20471;-79
2023/06/30 06:58:32;;;;;;;9.40;8.43;;;512.50;2380.80;;;;;;5101801;28;20115;-79
2023/06/30 07:00:59;;;;;;;10.93;8.73;;;512.60;2380.80;;;;;;5109597;28;20024;-79
2023/06/30 07:03:25;;;;;;;10.18;8.75;;;512.80;2380.80;;;;;;5105812;28;20056;-80
2023/06/30 07:05:51;;;;;;;11.10;8.70;;;512.90;2380.80;;;;;;5110164;28;20105;-77
2023/06/30 07:08:21;;;;;;;9.70;8.70;;;537.60;2406.40;;;;;;5109833;28;20048;-77
2023/06/30 07:10:48;;;;;;;10.40;9.43;;;537.60;2406.40;;;;;;5094724;28;20456;-79
2023/06/30 07:13:18;;;;;;;10.27;9.27;;;537.80;2406.40;;;;;;5110278;28;20032;-78
2023/06/30 07:15:45;;;;;;;12.02;9.30;;;537.90;2406.40;;;;;;5108846;28;20031;-78
2023/06/30 07:18:11;;;;;;;10.30;9.30;;;538.00;2406.40;;;;;;5106853;28;20039;-78
2023/06/30 07:20:37;;;;;;;11.07;9.75;;;512.90;2380.80;;;;;;5114617;28;20032;-76
2023/06/30 07:23:03;;;;;;;9.88;8.88;;;538.20;2406.40;;;;;;5093950;28;20368;-79
2023/06/30 07:25:29;;;;;;;11.80;9.10;;;538.10;2406.40;;;;;;5094224;28;20024;-78
2023/06/30 07:27:57;;;;;;;11.68;9.25;;;538.20;2406.40;;;;;;5109749;28;20035;-78
2023/06/30 07:30:25;;;;;;;9.98;8.82;;;538.40;2406.40;;;;;;5110071;28;20035;-78
2023/06/30 07:32:51;;;;;;;11.23;8.43;;;538.50;2406.40;;;;;;5109887;28;20043;-78
2023/06/30 07:35:18;;;;;;;11.02;8.27;;;563.20;2432.00;;;;;;5093624;28;20097;-79
2023/06/30 07:37:44;;;;;;;9.45;8.55;;;563.30;2432.00;;;;;;5093999;28;20069;-78
2023/06/30 07:40:11;;;;;;;8.70;7.80;;;563.60;2432.00;;;;;;5109497;28;20036;-77
2023/06/30 07:42:38;;;;;;;10.60;8.80;;;563.70;2432.00;;;;;;5109462;28;20028;-77
2023/06/30 07:45:17;;;;;;;8.88;7.80;;;563.90;2432.00;;;;;;5109630;28;20024;-78
2023/06/30 07:47:44;;;;;;;8.07;7.28;;;588.80;2432.00;;;;;;5109718;28;20034;-77
2023/06/30 07:50:12;;;;;;;9.13;8.23;;;564.10;2432.00;;;;;;5093926;28;20028;-81
2023/06/30 07:52:44;;;;;;;12.05;8.23;;;588.90;2432.00;;;;;;5093979;28;20115;-79
2023/06/30 07:55:12;;;;;;;12.40;8.73;;;589.10;2432.00;;;;;;5109734;28;20031;-79
2023/06/30 07:57:39;;;;;;;9.80;8.80;;;589.20;2432.00;;;;;;5109311;28;20468;-79
2023/06/30 08:00:06;;;;;;;8.70;7.15;;;589.40;2432.00;;;;;;5109635;28;20031;-79
2023/06/30 08:02:32;;;;;;;8.57;7.53;;;589.20;2432.00;;;;;;5109568;28;20034;-78
2023/06/30 08:04:57;;;;;;;7.95;7.20;;;589.00;2432.00;;;;;;5109416;28;20123;-77
2023/06/30 08:07:23;;;;;;;11.48;6.93;;;589.30;2432.00;;;;;;5109699;28;20430;-78
2023/06/30 08:09:49;;;;;;;11.10;7.45;;;589.30;2432.00;;;;;;5093770;28;20048;-80
2023/06/30 08:12:15;;;;;;;7.88;7.07;;;589.60;2432.00;;;;;;5109093;28;20039;-80
2023/06/30 08:14:41;;;;;;;8.52;7.63;;;614.40;2432.00;;;;;;5098098;28;20031;-80
2023/06/30 08:17:07;;;;;;;7.82;7.05;;;614.40;2432.00;;;;;;5115912;28;20021;-79
2023/06/30 08:19:33;;;;;;;8.52;7.18;;;;;;;;;;5116154;28;20115;-80
2023/06/30 08:22:01;;;;;;;9.57;7.53;;;614.70;2432.00;;;;;;5116257;28;20020;-80
2023/06/30 08:24:27;;;;;;;7.50;6.70;;;614.80;2432.00;;;;;;5115863;28;20039;-81
2023/06/30 08:26:53;;;;;;;8.15;6.85;;;614.90;2432.00;;;;;;5116143;28;20024;-80
2023/06/30 08:29:18;;;;;;;9.30;7.53;;;614.90;2432.00;;;;;;5116234;28;20539;-80
2023/06/30 08:31:44;;;;;;;8.32;7.47;;;615.10;2432.00;;;;;;5115633;28;20040;-81
2023/06/30 08:34:10;;;;;;;8.30;6.38;;;615.30;2432.00;;;;;;5116080;28;20035;-81
2023/06/30 08:36:36;;;;;;;9.88;6.93;;;640.00;2432.00;;;;;;5116146;28;20047;-81
2023/06/30 08:39:02;;;;;;;11.60;7.07;;;640.10;2432.00;;;;;;5115636;28;20467;-81
2023/06/30 08:41:28;;;;;;;9.38;6.60;;;640.10;2432.00;;;;;;5116022;28;20035;-81
2023/06/30 08:43:56;;;;;;;9.52;6.93;;;640.30;2432.00;;;;;;5100466;28;20099;-82
2023/06/30 08:46:24;;;;;;;10.35;7.43;;;640.50;2432.00;;;;;;5115586;28;20024;-80
2023/06/30 08:48:51;;;;;;;8.40;7.18;;;640.70;2432.00;;;;;;5115788;28;20024;-82
2023/06/30 08:51:18;;;;;;;8.88;7.18;;;640.70;2432.00;;;;;;5116025;28;20438;-82
2023/06/30 08:53:46;;;;;;;8.20;6.72;;;640.90;2432.00;;;;;;5115640;28;20383;-82
2023/06/30 08:56:14;;;;;;;10.05;5.53;;;665.60;2432.00;;;;;;5100103;28;20020;-81
2023/06/30 08:58:41;;;;;;;9.05;6.05;;;;;;;;;;5099827;28;20024;-82
2023/06/30 09:01:08;;;;;;;7.20;5.72;;;;;;;;;;5115666;28;20066;-82
2023/06/30 09:03:35;;;;;;;7.10;5.55;;;666.30;2432.00;;;;;;5116157;28;20467;-81
2023/06/30 09:06:01;;;;;;;7.90;5.20;;;666.30;2432.00;;;;;;5115607;28;20024;-82
2023/06/30 09:08:58;;;;;;;7.03;4.95;;;666.40;2432.00;;;;;;5099879;28;20338;-82
2023/06/30 09:11:26;;;;;;;8.32;5.10;;;666.50;2432.00;;;;;;5100384;28;20074;-78
2023/06/30 09:13:53;;;;;;;7.00;4.78;;;691.20;2432.00;;;;;;5099349;28;20454;-77
2023/06/30 09:16:19;;;;;;;6.38;4.30;;;691.40;2406.40;;;;;;5099900;28;20035;-79
2023/06/30 09:18:47;;;;;;;5.20;4.32;;;691.50;2380.80;;;;;;5115669;28;20028;-80
2023/06/30 09:21:13;;;;;;;6.28;4.68;;;691.70;2355.20;;;;;;5099576;28;20052;-79
2023/06/30 09:23:39;;;;;;;7.32;4.43;;;691.80;2329.60;;;;;;5099842;28;20095;-78
2023/06/30 09:26:13;;;;;;;11.23;4.75;;;691.80;2329.60;;;;;;5096698;28;20435;-77
2023/06/30 09:28:42;;;;;;;8.05;4.75;;;691.90;2278.40;;;;;;5096645;28;20031;-77
2023/06/30 09:31:08;;;;;;;6.28;4.68;;;692.00;2252.80;;;;;;5112267;28;20545;-78
2023/06/30 09:33:35;;;;;;;5.25;4.30;;;692.10;2252.80;;;;;;5112326;28;20031;-80
2023/06/30 09:36:03;;;;;;;7.38;4.40;;;716.80;2227.20;;;;;;5095895;28;20027;-78
2023/06/30 09:38:29;;;;;;;6.22;4.13;;;716.90;2201.60;;;;;;5112318;28;20027;-79
2023/06/30 09:40:56;;;;;;;5.45;4.10;;;717.00;2150.40;;;;;;5096033;28;20476;-79
2023/06/30 09:43:24;;;;;;;6.55;3.85;;;717.10;2176.00;;;;;;5112322;28;20422;-80
2023/06/30 09:45:59;;;;;;;5.18;3.80;;;717.20;2150.40;;;;;;5111855;28;20027;-79
2023/06/30 09:48:43;;;;;;;5.65;3.88;;;717.30;2150.40;;;;;;5111872;28;20435;-78
2023/06/30 09:51:09;;;;;;;7.55;3.53;;;717.10;2099.20;;;;;;5112067;28;20380;-77
2023/06/30 09:53:39;;;;;;;6.70;4.40;;;717.20;2073.60;;;;;;5111787;28;20028;-77
2023/06/30 09:56:07;;;;;;;4.00;3.35;;;717.40;2124.80;;;;;;5096029;28;20028;-77
2023/06/30 09:58:33;;;;;;;6.93;4.07;;;717.50;2124.80;;;;;;5095998;28;20028;-77
2023/06/30 10:00:59;;;;;;;7.70;3.70;;;717.70;2124.80;;;;;;5096221;28;20024;-79
2023/06/30 10:03:25;;;;;;;5.82;3.72;;;742.40;2099.20;;;;;;5111571;28;20527;-78
2023/06/30 10:05:52;;;;;;;7.82;3.95;;;742.60;2099.20;;;;;;5111669;28;20031;-79
2023/06/30 10:08:21;;;;;;;5.32;3.42;;;742.80;2099.20;;;;;;5111413;28;20052;-78
2023/06/30 10:10:47;;;;;;;7.97;3.95;;;742.70;2048.00;;;;;;5095933;28;20028;-77
2023/06/30 10:13:15;;;;;;;9.60;3.83;;;742.70;2048.00;;;;;;5095816;28;20112;-77
2023/06/30 10:15:43;;;;;;;7.47;3.50;;;742.80;2073.60;;;;;;5111469;28;20032;-77
2023/06/30 10:18:12;;;;;;;8.43;3.35;;;742.90;2073.60;;;;;;5095412;28;20015;-79
2023/06/30 10:20:38;;;;;;;6.13;3.38;;;742.90;2048.00;;;;;;5111530;28;20467;-78
2023/06/30 10:23:05;;;;;;;8.25;3.95;;;743.10;2022.40;;;;;;5095430;28;20024;-78
2023/06/30 10:25:35;;;;;;;4.18;3.10;;;743.20;2022.40;;;;;;5111361;28;20024;-78
2023/06/30 10:28:01;;;;;;;4.22;3.17;;;743.30;1996.80;;;;;;5095376;28;20528;-81
2023/06/30 10:30:27;;;;;;;5.03;2.60;;;768.00;1996.80;;;;;;5095389;28;20032;-78
2023/06/30 10:32:53;;;;;;;4.25;2.80;;;768.10;1996.80;;;;;;5111126;28;20035;-80
2023/06/30 10:35:21;;;;;;;5.38;3.10;;;768.20;1945.60;;;;;;5111298;28;20032;-81
2023/06/30 10:37:47;;;;;;;7.55;4.38;;;768.20;1971.20;;;;;;5095050;28;20052;-81
2023/06/30 10:40:27;;;;;;;4.63;3.35;;;768.30;1971.20;;;;;;5098916;28;20081;-82
2023/06/30 10:42:57;;;;;;;6.32;3.20;;;;;;;;;;5129121;27;20076;-79
2023/06/30 10:45:30;;;;;;;4.45;3.22;;;;;;;;;;5099803;28;20020;-80
2023/06/30 10:47:57;;;;;;;4.95;3.97;;;;;;;;;;5110884;28;20364;-80
2023/06/30 10:50:23;;;;;;;5.93;4.18;;;768.80;1945.60;;;;;;5111012;28;20020;-79
2023/06/30 10:52:50;;;;;;;5.38;2.95;;;;;;;;;;5111322;28;20024;-81
2023/06/30 10:55:19;;;;;;;8.93;3.58;;;;;;;;;;5095585;28;20030;-80
2023/06/30 10:57:50;;;;;;;4.40;2.97;;;;;;;;;;5110474;28;20024;-80
2023/06/30 11:00:16;;;;;;;4.32;2.92;;;;;;;;;;5094843;28;20471;-80
2023/06/30 11:02:57;;;;;;;5.55;2.90;;;793.70;1945.60;;;;;;5110579;28;20301;-79
2023/06/30 11:05:31;;;;;;;5.82;3.45;;;768.90;1894.40;;;;;;5093042;28;20031;-79
2023/06/30 11:08:04;;;;;;;4.95;3.85;;;793.70;1945.60;;;;;;5094196;28;20016;-82
2023/06/30 11:10:33;;;;;;;6.95;4.70;;;794.00;1920.00;;;;;;5110195;28;20039;-81
2023/06/30 11:13:00;;;;;;;7.53;4.45;;;793.90;1971.20;;;;;;5109947;28;20177;-80
2023/06/30 11:15:34;;;;;;;4.65;3.00;;;;;;;;;;5094615;28;20024;-79
2023/06/30 11:18:02;;;;;;;5.78;3.85;;;794.20;1920.00;;;;;;5110292;28;20063;-81
2023/06/30 11:20:29;;;;;;;3.70;2.85;;;794.30;1920.00;;;;;;5109843;28;20032;-79
2023/06/30 11:23:00;;;;;;;7.20;3.10;;;794.30;1894.40;;;;;;5110060;28;20032;-80
2023/06/30 11:25:30;;;;;;;8.30;4.07;;;794.00;1868.80;;;;;;5110093;28;20422;-80
2023/06/30 11:27:57;;;;;;;5.22;3.17;;;794.20;1920.00;;;;;;5109748;28;20383;-80
2023/06/30 11:30:23;;;;;;;4.50;2.72;;;819.30;1920.00;;;;;;5094451;28;20038;-81
2023/06/30 11:32:55;;;;;;;4.50;3.00;;;794.00;1868.80;;;;;;5109785;28;20032;-79
2023/06/30 11:35:21;;;;;;;5.30;3.42;;;794.10;1894.40;;;;;;5094580;28;20376;-83
2023/06/30 11:37:51;;;;;;;5.70;3.97;;;794.30;1920.00;;;;;;5109873;28;20020;-80
2023/06/30 11:40:17;;;;;;;5.07;3.20;;;794.50;1920.00;;;;;;5093809;28;20024;-79
2023/06/30 11:42:43;;;;;;;6.10;3.72;;;819.30;1894.40;;;;;;5109693;28;20028;-81
2023/06/30 11:45:10;;;;;;;3.80;2.90;;;819.40;1894.40;;;;;;5109764;28;20077;-81
2023/06/30 11:47:38;;;;;;;5.35;3.38;;;819.70;1894.40;;;;;;5093424;28;20028;-80
2023/06/30 11:50:08;;;;;;;6.97;3.58;;;819.60;1894.40;;;;;;5093349;28;20026;-79
2023/06/30 11:52:38;;;;;;;8.07;4.05;;;819.90;1868.80;;;;;;5093625;28;20456;-79
2023/06/30 11:55:08;;;;;;;6.22;3.00;;;;;;;;;;5109347;28;20074;-82
2023/06/30 11:57:36;;;;;;;4.07;3.00;;;;;;;;;;5109559;28;20485;-81
2023/06/30 12:00:22;;;;;;;4.45;2.85;;;;;;;;;;5108112;28;20123;-80
2023/06/30 12:02:50;;;;;;;6.03;3.35;;;;;;;;;;5093363;28;20107;-81
2023/06/30 12:05:18;;;;;;;5.78;2.92;;;;;;;;;;5109437;28;20532;-82
2023/06/30 12:07:45;;;;;;;4.05;2.70;;;;;;;;;;5109292;28;20024;-79
2023/06/30 12:10:11;;;;;;;4.72;2.90;;;;;;;;;;5109191;28;20031;-80
2023/06/30 12:12:38;;;;;;;4.07;2.97;;;;;;;;;;5093667;28;20471;-81
2023/06/30 12:15:05;;;;;;;4.32;3.10;;;;;;;;;;5093478;28;20093;-79
2023/06/30 12:17:39;;;;;;;4.03;2.80;;;;;;;;;;5109347;28;20020;-81